Time;durP1;ratioP1;P1;durP2;ratioP2;P2;SDS_P1;SDS_P2;PMS_P1;PMS_P2;Temp;Humidity;BMP_temperature;BMP_pressure;BME280_temperature;BME280_humidity;BME280_pressure;Samples;Min_cycle;Max_cycle;Signal;HPM_P1;HPM_P2
2021/03/29 00:02:17;;;;;;;;;16.75;16.75;;;;;;;;5059302;27;114160;-75
2021/03/29 00:04:43;;;;;;;;;18.75;17.25;;;;;;;;5072524;27;112167;-79
2021/03/29 00:07:11;;;;;;;;;18.50;18.00;;;;;;;;5056941;27;114859;-77
2021/03/29 00:09:39;;;;;;;;;17.50;16.25;;;;;;;;5062862;27;114312;-73
2021/03/29 00:12:07;;;;;;;;;17.00;17.00;;;;;;;;5060114;27;112304;-76
2021/03/29 00:14:34;;;;;;;;;21.00;16.00;;;;;;;;5065873;27;113972;-76
2021/03/29 00:17:00;;;;;;;;;16.00;14.50;;;;;;;;5062677;27;111878;-77
2021/03/29 00:19:27;;;;;;;;;22.00;18.00;;;;;;;;5061506;27;112323;-79
2021/03/29 00:21:53;;;;;;;;;20.00;18.50;;;;;;;;5063417;27;113960;-78
2021/03/29 00:24:20;;;;;;;;;19.00;17.25;;;;;;;;5061279;27;112286;-75
2021/03/29 00:26:46;;;;;;;;;17.50;15.25;;;;;;;;5063273;27;114028;-75
2021/03/29 00:29:12;;;;;;;;;18.25;17.25;;;;;;;;5067773;27;114383;-78
2021/03/29 00:31:38;;;;;;;;;16.50;15.50;;;;;;;;5064356;27;111968;-75
2021/03/29 00:34:05;;;;;;;;;21.25;17.50;;;;;;;;5062006;27;113651;-75
2021/03/29 00:36:32;;;;;;;;;16.25;16.25;;;;;;;;5063602;27;114485;-74
2021/03/29 00:38:58;;;;;;;;;17.50;14.25;;;;;;;;5062612;27;113485;-75
2021/03/29 00:41:26;;;;;;;;;19.00;16.00;;;;;;;;5062600;27;114915;-74
2021/03/29 00:43:52;;;;;;;;;14.50;10.75;;;;;;;;5049150;27;112071;-75
2021/03/29 00:46:19;;;;;;;;;16.25;15.50;;;;;;;;5041678;27;113527;-74
2021/03/29 00:48:46;;;;;;;;;19.25;17.00;;;;;;;;5045372;27;114416;-75
2021/03/29 00:51:13;;;;;;;;;16.25;16.00;;;;;;;;5048127;27;112339;-75
2021/03/29 00:53:41;;;;;;;;;15.00;11.75;;;;;;;;5046654;27;114021;-76
2021/03/29 00:56:07;;;;;;;;;16.50;16.00;;;;;;;;5043741;27;114305;-73
2021/03/29 00:58:34;;;;;;;;;17.25;15.00;;;;;;;;5050935;27;112674;-75
2021/03/29 01:01:05;;;;;;;;;20.00;16.75;;;;;;;;5046613;27;114087;-76
2021/03/29 01:03:31;;;;;;;;;19.00;17.25;;;;;;;;5047621;27;111941;-75
2021/03/29 01:05:59;;;;;;;;;21.75;19.25;;;;;;;;5048337;27;113526;-76
2021/03/29 01:08:25;;;;;;;;;16.00;14.25;;;;;;;;5048315;27;114182;-75
2021/03/29 01:10:52;;;;;;;;;22.25;19.25;;;;;;;;5046709;27;113126;-76
2021/03/29 01:13:18;;;;;;;;;16.50;15.75;;;;;;;;5050531;27;113471;-76
2021/03/29 01:15:47;;;;;;;;;21.75;15.75;;;;;;;;5045462;27;114385;-76
2021/03/29 01:18:15;;;;;;;;;19.25;16.00;;;;;;;;5046517;27;112181;-76
2021/03/29 01:20:49;;;;;;;;;18.50;16.00;;;;;;;;5052745;27;113739;-76
2021/03/29 01:23:15;;;;;;;;;16.50;16.50;;;;;;;;5046249;27;112289;-76
2021/03/29 01:25:44;;;;;;;;;20.00;15.25;;;;;;;;5049954;27;113640;-76
2021/03/29 01:28:13;;;;;;;;;16.75;16.50;;;;;;;;5045428;27;114504;-75
2021/03/29 01:30:39;;;;;;;;;19.50;15.25;;;;;;;;5048909;27;112032;-74
2021/03/29 01:33:06;;;;;;;;;17.50;17.50;;;;;;;;5046892;27;112575;-75
2021/03/29 01:35:33;;;;;;;;;17.25;13.00;;;;;;;;5048383;27;114231;-75
2021/03/29 01:38:00;;;;;;;;;21.25;15.50;;;;;;;;5047451;27;112234;-75
2021/03/29 01:40:27;;;;;;;;;17.25;15.75;;;;;;;;5047268;27;113648;-75
2021/03/29 01:42:53;;;;;;;;;18.50;17.00;;;;;;;;5051884;27;112158;-74
2021/03/29 01:45:20;;;;;;;;;16.00;16.00;;;;;;;;5046741;27;113697;-74
2021/03/29 01:47:49;;;;;;;;;17.50;14.75;;;;;;;;5044330;27;114393;-75
2021/03/29 01:50:17;;;;;;;;;19.50;15.75;;;;;;;;5049813;27;112147;-75
2021/03/29 01:52:43;;;;;;;;;17.00;15.00;;;;;;;;5046066;27;113454;-74
2021/03/29 01:55:10;;;;;;;;;16.25;16.25;;;;;;;;5047667;27;114182;-75
2021/03/29 01:57:36;;;;;;;;;15.75;14.75;;;;;;;;5044743;27;113475;-76
2021/03/29 02:00:06;;;;;;;;;18.33;18.00;;;;;;;;5047487;27;113979;-76
2021/03/29 02:02:33;;;;;;;;;15.00;15.00;;;;;;;;5050666;27;114154;-76
2021/03/29 02:04:59;;;;;;;;;21.00;17.67;;;;;;;;5047620;27;113457;-76
2021/03/29 02:07:26;;;;;;;;;16.00;15.50;;;;;;;;5046167;27;114290;-76
2021/03/29 02:09:52;;;;;;;;;18.25;16.75;;;;;;;;5049265;27;112780;-76
2021/03/29 02:12:18;;;;;;;;;16.00;16.00;;;;;;;;5046057;27;114143;-75
2021/03/29 02:14:44;;;;;;;;;17.75;17.75;;;;;;;;5044639;27;114594;-75
2021/03/29 02:17:11;;;;;;;;;16.75;14.25;;;;;;;;5048740;27;111992;-75
2021/03/29 02:19:38;;;;;;;;;9.50;6.75;;;;;;;;5045471;27;113551;-76
2021/03/29 02:22:06;;;;;;;;;15.00;14.00;;;;;;;;5045861;27;114831;-76
2021/03/29 02:24:33;;;;;;;;;13.00;12.67;;;;;;;;5051877;27;112090;-76
2021/03/29 02:26:59;;;;;;;;;17.25;14.50;;;;;;;;5046531;27;115018;-76
2021/03/29 02:29:27;;;;;;;;;14.75;13.25;;;;;;;;5046387;27;111969;-76
2021/03/29 02:31:53;;;;;;;;;18.00;15.00;;;;;;;;5047664;27;113532;-76
2021/03/29 02:34:20;;;;;;;;;13.25;11.50;;;;;;;;5045396;27;114339;-76
2021/03/29 02:36:47;;;;;;;;;14.00;14.00;;;;;;;;5048639;27;111972;-76
2021/03/29 02:39:13;;;;;;;;;16.50;14.50;;;;;;;;5045603;27;113393;-76
2021/03/29 02:41:39;;;;;;;;;15.25;12.50;;;;;;;;5047887;27;113987;-76
2021/03/29 02:44:06;;;;;;;;;17.67;14.00;;;;;;;;5042364;27;111971;-76
2021/03/29 02:46:32;;;;;;;;;16.33;16.33;;;;;;;;5050007;27;113434;-76
2021/03/29 02:49:00;;;;;;;;;17.25;14.75;;;;;;;;5047169;27;112116;-75
2021/03/29 02:51:26;;;;;;;;;14.50;14.50;;;;;;;;5046139;27;113489;-75
2021/03/29 02:53:56;;;;;;;;;16.00;14.67;;;;;;;;5047341;27;113872;-75
2021/03/29 02:56:23;;;;;;;;;23.00;17.67;;;;;;;;5046112;27;112165;-76
2021/03/29 02:58:52;;;;;;;;;14.67;12.67;;;;;;;;5048054;27;113278;-76
2021/03/29 03:01:22;;;;;;;;;17.00;16.33;;;;;;;;5044320;27;113936;-75
2021/03/29 03:03:51;;;;;;;;;17.33;14.33;;;;;;;;5048710;27;111781;-76
2021/03/29 03:06:19;;;;;;;;;18.33;15.67;;;;;;;;5045392;27;113607;-76
2021/03/29 03:08:45;;;;;;;;;13.33;13.00;;;;;;;;5047951;27;114320;-76
2021/03/29 03:11:12;;;;;;;;;12.67;12.67;;;;;;;;5047845;27;113965;-75
2021/03/29 03:13:38;;;;;;;;;17.33;17.00;;;;;;;;5045033;27;113948;-75
2021/03/29 03:16:05;;;;;;;;;19.00;14.00;;;;;;;;5046868;27;111884;-75
2021/03/29 03:18:31;;;;;;;;;17.33;14.00;;;;;;;;5045728;27;113663;-75
2021/03/29 03:20:57;;;;;;;;;15.00;14.67;;;;;;;;5045710;27;114136;-76
2021/03/29 03:23:23;;;;;;;;;13.33;13.00;;;;;;;;5047495;27;112116;-75
2021/03/29 03:25:50;;;;;;;;;18.67;16.00;;;;;;;;5045050;27;113759;-75
2021/03/29 03:28:18;;;;;;;;;15.33;14.00;;;;;;;;5048122;27;114350;-75
2021/03/29 03:30:45;;;;;;;;;18.00;14.67;;;;;;;;5047708;27;112856;-74
2021/03/29 03:33:13;;;;;;;;;21.00;18.00;;;;;;;;5043642;27;116269;-75
2021/03/29 03:35:40;;;;;;;;;18.67;17.67;;;;;;;;5044286;27;112541;-73
2021/03/29 03:38:09;;;;;;;;;16.33;13.67;;;;;;;;5048488;27;114376;-74
2021/03/29 03:40:36;;;;;;;;;14.67;14.00;;;;;;;;5049313;27;113265;-73
2021/03/29 03:43:03;;;;;;;;;17.67;17.00;;;;;;;;5044543;27;112416;-74
2021/03/29 03:45:33;;;;;;;;;21.00;17.00;;;;;;;;5044196;27;113849;-74
2021/03/29 03:48:00;;;;;;;;;19.33;14.67;;;;;;;;5044870;27;114261;-75
2021/03/29 03:50:26;;;;;;;;;14.00;13.00;;;;;;;;5048920;27;111997;-74
2021/03/29 03:52:54;;;;;;;;;18.67;15.33;;;;;;;;5044236;27;114197;-75
2021/03/29 03:55:21;;;;;;;;;15.33;15.33;;;;;;;;5047453;27;112014;-75
2021/03/29 03:57:47;;;;;;;;;15.33;13.00;;;;;;;;5044396;27;115116;-75
2021/03/29 04:00:17;;;;;;;;;21.67;17.00;;;;;;;;5047354;27;113950;-74
2021/03/29 04:02:44;;;;;;;;;16.00;16.00;;;;;;;;5043906;27;112421;-73
2021/03/29 04:05:12;;;;;;;;;18.33;17.33;;;;;;;;5044142;27;114095;-73
2021/03/29 04:07:38;;;;;;;;;17.67;14.00;;;;;;;;5046881;27;114033;-74
2021/03/29 04:10:13;;;;;;;;;13.00;11.67;;;;;;;;5043130;27;112077;-75
2021/03/29 04:12:40;;;;;;;;;17.00;13.00;;;;;;;;5050268;27;113839;-74
2021/03/29 04:15:06;;;;;;;;;22.00;16.67;;;;;;;;5044702;27;112898;-76
2021/03/29 04:17:32;;;;;;;;;16.67;14.33;;;;;;;;5047064;27;113794;-76
2021/03/29 04:19:59;;;;;;;;;15.33;15.33;;;;;;;;5044750;27;112888;-75
2021/03/29 10:47:30;;;;;;;;;14.50;13.50;;;;;;;;4980392;27;1734169;-75
2021/03/29 10:49:56;;;;;;;;;14.50;13.75;;;;;;;;5027443;27;114180;-78
2021/03/29 10:52:23;;;;;;;;;44.50;35.50;;;;;;;;5024338;27;112094;-72
2021/03/29 10:54:52;;;;;;;;;17.75;15.25;;;;;;;;5033174;27;113927;-78
2021/03/29 10:57:18;;;;;;;;;12.25;10.75;;;;;;;;5026414;27;114440;-82
2021/03/29 10:59:46;;;;;;;;;14.50;14.50;;;;;;;;5021401;27;111908;-80
2021/03/29 11:02:12;;;;;;;;;13.25;11.00;;;;;;;;5018177;27;113419;-85
2021/03/29 11:04:39;;;;;;;;;12.25;12.25;;;;;;;;5021155;27;114818;-80
2021/03/29 11:07:07;;;;;;;;;10.75;10.00;;;;;;;;5028285;27;112295;-81
2021/03/29 11:09:33;;;;;;;;;18.50;17.25;;;;;;;;5029899;27;114998;-77
2021/03/29 11:11:59;;;;;;;;;13.00;12.00;;;;;;;;5022974;27;111908;-82
2021/03/29 11:14:25;;;;;;;;;10.25;9.50;;;;;;;;5021047;27;114845;-75
2021/03/29 11:16:53;;;;;;;;;9.50;9.50;;;;;;;;5021585;27;114209;-77
2021/03/29 11:19:19;;;;;;;;;10.00;9.75;;;;;;;;5018640;27;112373;-77
2021/03/29 11:21:46;;;;;;;;;22.50;19.00;;;;;;;;5018667;27;113800;-77
2021/03/29 11:24:12;;;;;;;;;11.00;11.00;;;;;;;;5021560;27;114220;-76
2021/03/29 11:26:38;;;;;;;;;9.00;9.00;;;;;;;;5023357;27;113809;-74
2021/03/29 11:29:04;;;;;;;;;10.25;9.00;;;;;;;;5028407;27;114041;-79
2021/03/29 11:31:31;;;;;;;;;12.00;10.00;;;;;;;;5020359;27;112559;-83
2021/03/29 11:33:57;;;;;;;;;11.00;9.00;;;;;;;;5017407;27;113590;-74
2021/03/29 11:36:23;;;;;;;;;10.50;10.50;;;;;;;;5025629;27;114204;-72
2021/03/29 11:38:50;;;;;;;;;9.75;9.75;;;;;;;;5014935;27;112394;-79
2021/03/29 11:41:19;;;;;;;;;10.75;10.00;;;;;;;;5017935;27;113518;-82
2021/03/29 11:43:45;;;;;;;;;10.50;10.50;;;;;;;;5019946;27;114667;-86
2021/03/29 11:46:11;;;;;;;;;11.00;10.50;;;;;;;;5026782;27;113887;-82
2021/03/29 11:48:37;;;;;;;;;13.00;11.00;;;;;;;;5029006;27;113838;-78
2021/03/29 11:51:03;;;;;;;;;10.00;8.50;;;;;;;;5021798;27;114531;-71
2021/03/29 11:53:30;;;;;;;;;10.25;10.00;;;;;;;;5018531;27;113641;-77
2021/03/29 11:55:57;;;;;;;;;9.50;9.50;;;;;;;;5024622;27;113165;-74
2021/03/29 11:58:23;;;;;;;;;10.50;10.50;;;;;;;;5015841;27;112815;-75
2021/03/29 12:00:53;;;;;;;;;10.00;10.00;;;;;;;;5011850;28;113094;-77
2021/03/29 12:03:26;;;;;;;;;11.25;11.00;;;;;;;;5013612;28;114277;-74
2021/03/29 12:05:54;;;;;;;;;11.00;11.00;;;;;;;;5016525;28;112002;-86
2021/03/29 12:08:31;;;;;;;;;13.25;11.75;;;;;;;;5010558;28;115450;-86
2021/03/29 12:13:43;;;;;;;;;12.00;12.00;;;;;;;;5018830;28;112477;-77
2021/03/29 12:16:10;;;;;;;;;15.50;14.25;;;;;;;;5012213;28;114061;-80
2021/03/29 12:18:41;;;;;;;;;12.25;10.50;;;;;;;;5012119;28;112408;-74
2021/03/29 12:21:08;;;;;;;;;14.00;12.75;;;;;;;;5007678;28;113555;-78
2021/03/29 12:23:35;;;;;;;;;14.50;12.50;;;;;;;;5012755;28;113289;-82
2021/03/29 12:26:03;;;;;;;;;15.00;14.00;;;;;;;;5011100;28;113235;-79
2021/03/29 12:28:30;;;;;;;;;11.00;11.00;;;;;;;;5009069;28;112839;-76
2021/03/29 12:30:56;;;;;;;;;11.00;10.25;;;;;;;;5010047;28;114251;-83
2021/03/29 12:33:22;;;;;;;;;11.75;11.75;;;;;;;;5005470;28;112909;-82
2021/03/29 12:35:48;;;;;;;;;10.00;9.00;;;;;;;;5006980;28;114057;-88
2021/03/29 12:38:15;;;;;;;;;9.25;9.25;;;;;;;;5006734;28;112090;-82
2021/03/29 12:40:44;;;;;;;;;12.00;10.25;;;;;;;;5009684;28;112403;-84
2021/03/29 12:43:15;;;;;;;;;9.00;9.00;;;;;;;;5006154;28;113837;-85
2021/03/29 12:45:42;;;;;;;;;10.75;10.00;;;;;;;;5016265;28;112036;-84
2021/03/29 12:48:12;;;;;;;;;13.50;12.25;;;;;;;;5009330;28;113470;-90
2021/03/29 12:50:39;;;;;;;;;10.50;10.00;;;;;;;;5008011;28;113253;-79
2021/03/29 12:53:05;;;;;;;;;9.75;9.75;;;;;;;;5007066;28;112345;-82
2021/03/29 12:55:31;;;;;;;;;9.50;7.00;;;;;;;;5007492;28;113652;-84
2021/03/29 12:57:57;;;;;;;;;11.25;11.00;;;;;;;;5010526;28;113327;-75
2021/03/29 13:00:25;;;;;;;;;9.50;9.25;;;;;;;;5006395;28;113494;-84
2021/03/29 13:02:54;;;;;;;;;11.50;9.50;;;;;;;;5007608;28;113769;-78
2021/03/29 13:05:24;;;;;;;;;10.50;9.50;;;;;;;;5006384;28;112256;-81
2021/03/29 13:07:54;;;;;;;;;15.50;13.00;;;;;;;;5009508;28;113029;-85
2021/03/29 13:13:01;;;;;;;;;12.00;9.00;;;;;;;;5007616;28;112268;-80
2021/03/29 13:15:28;;;;;;;;;9.50;9.00;;;;;;;;5006212;28;113921;-74
2021/03/29 13:17:54;;;;;;;;;11.50;10.75;;;;;;;;5005231;28;113974;-74
2021/03/29 13:20:24;;;;;;;;;10.25;10.25;;;;;;;;5011125;28;113944;-78
2021/03/29 13:22:50;;;;;;;;;9.50;9.00;;;;;;;;5003190;28;114686;-77
2021/03/29 13:25:17;;;;;;;;;13.75;11.75;;;;;;;;5003793;28;112127;-73
2021/03/29 13:27:43;;;;;;;;;12.50;11.25;;;;;;;;5005580;28;114290;-74
2021/03/29 13:30:14;;;;;;;;;10.50;10.50;;;;;;;;5003715;28;114433;-75
2021/03/29 13:32:41;;;;;;;;;11.75;10.25;;;;;;;;5006104;28;114028;-77
2021/03/29 13:35:08;;;;;;;;;9.75;9.75;;;;;;;;5006413;28;113938;-72
2021/03/29 13:37:35;;;;;;;;;10.75;10.25;;;;;;;;5005289;28;114196;-75
2021/03/29 13:40:01;;;;;;;;;13.00;11.00;;;;;;;;5009829;28;112585;-73
2021/03/29 13:42:28;;;;;;;;;10.25;8.75;;;;;;;;5003333;28;114273;-74
2021/03/29 13:44:54;;;;;;;;;11.25;11.00;;;;;;;;5005998;28;111883;-75
2021/03/29 13:47:20;;;;;;;;;12.00;11.00;;;;;;;;5002858;28;113581;-74
2021/03/29 13:49:48;;;;;;;;;11.50;11.50;;;;;;;;5005609;28;114192;-78
2021/03/29 13:52:15;;;;;;;;;11.50;11.00;;;;;;;;5003031;28;112229;-75
2021/03/29 13:54:41;;;;;;;;;10.50;9.00;;;;;;;;5007157;28;113760;-74
2021/03/29 13:57:08;;;;;;;;;10.00;10.00;;;;;;;;5005500;28;114219;-79
2021/03/29 13:59:35;;;;;;;;;10.25;9.25;;;;;;;;5006034;28;113379;-77
2021/03/29 14:02:03;;;;;;;;;8.50;8.00;;;;;;;;5010292;28;113574;-77
2021/03/29 14:04:29;;;;;;;;;12.00;11.75;;;;;;;;5009186;28;112111;-74
2021/03/29 14:06:56;;;;;;;;;10.00;10.00;;;;;;;;5001598;28;113926;-78
2021/03/29 14:09:25;;;;;;;;;10.00;10.00;;;;;;;;5001848;28;114947;-77
2021/03/29 14:11:51;;;;;;;;;11.25;11.25;;;;;;;;5004411;28;111981;-78
2021/03/29 14:14:18;;;;;;;;;12.75;11.00;;;;;;;;5005656;28;114075;-80
2021/03/29 14:16:44;;;;;;;;;10.25;9.25;;;;;;;;5001592;28;114012;-76
2021/03/29 14:19:17;;;;;;;;;10.00;10.00;;;;;;;;5006206;28;112465;-73
2021/03/29 14:21:43;;;;;;;;;11.00;10.00;;;;;;;;5006963;27;114128;-74
2021/03/29 14:24:11;;;;;;;;;12.75;10.00;;;;;;;;5008565;28;114208;-73
2021/03/29 14:26:37;;;;;;;;;9.00;9.00;;;;;;;;5003436;28;113517;-73
2021/03/29 14:29:03;;;;;;;;;13.50;10.75;;;;;;;;5003289;28;114422;-81
2021/03/29 14:31:29;;;;;;;;;14.75;12.25;;;;;;;;5004813;28;111915;-72
2021/03/29 14:33:57;;;;;;;;;12.50;11.00;;;;;;;;5004081;28;113932;-76
2021/03/29 14:36:29;;;;;;;;;11.75;11.00;;;;;;;;5000507;28;114373;-82
2021/03/29 14:39:04;;;;;;;;;8.75;8.75;;;;;;;;5003690;28;112242;-82
2021/03/29 14:41:43;;;;;;;;;10.75;10.00;;;;;;;;5003635;28;113529;-89
2021/03/29 14:44:32;;;;;;;;;11.50;10.00;;;;;;;;5001521;28;113985;-88
2021/03/29 14:47:00;;;;;;;;;10.50;10.50;;;;;;;;5009500;28;112394;-85
2021/03/29 14:49:26;;;;;;;;;10.00;9.50;;;;;;;;5011870;28;116314;-83
2021/03/29 14:51:52;;;;;;;;;8.25;7.25;;;;;;;;5011602;28;111980;-80
2021/03/29 14:54:18;;;;;;;;;12.50;11.00;;;;;;;;5009595;28;113637;-80
2021/03/29 14:56:45;;;;;;;;;10.75;10.00;;;;;;;;5011217;28;113332;-81
2021/03/29 14:59:11;;;;;;;;;12.00;12.00;;;;;;;;5012762;28;111958;-84
2021/03/29 15:01:37;;;;;;;;;9.00;8.50;;;;;;;;5013381;28;113842;-90
2021/03/29 15:04:07;;;;;;;;;10.25;10.25;;;;;;;;5011921;28;115587;-78
2021/03/29 15:06:39;;;;;;;;;15.75;13.00;;;;;;;;5015680;28;112236;-77
2021/03/29 15:09:05;;;;;;;;;10.50;9.75;;;;;;;;5010405;28;114080;-74
2021/03/29 15:11:31;;;;;;;;;11.00;10.25;;;;;;;;5012061;28;111866;-74
2021/03/29 15:13:58;;;;;;;;;11.00;10.00;;;;;;;;5012492;28;114646;-75
2021/03/29 15:16:24;;;;;;;;;14.25;11.75;;;;;;;;5011177;28;114827;-74
2021/03/29 15:18:51;;;;;;;;;11.75;11.00;;;;;;;;5003335;28;111998;-73
2021/03/29 15:21:17;;;;;;;;;12.00;11.00;;;;;;;;4996265;28;113704;-89
2021/03/29 15:23:43;;;;;;;;;13.00;11.75;;;;;;;;5005672;28;114573;-73
2021/03/29 15:26:09;;;;;;;;;12.25;11.75;;;;;;;;5004358;28;111884;-75
2021/03/29 15:28:35;;;;;;;;;9.75;9.75;;;;;;;;5005447;28;113321;-75
2021/03/29 15:31:02;;;;;;;;;12.00;11.00;;;;;;;;5003465;28;111925;-74
2021/03/29 15:33:28;;;;;;;;;10.75;9.75;;;;;;;;5007603;28;114144;-73
2021/03/29 15:35:54;;;;;;;;;13.00;11.75;;;;;;;;5005219;28;114056;-74
2021/03/29 15:38:20;;;;;;;;;10.00;10.00;;;;;;;;5009134;28;112192;-73
2021/03/29 15:40:46;;;;;;;;;13.00;13.00;;;;;;;;5005097;28;113536;-73
2021/03/29 15:43:12;;;;;;;;;11.00;10.25;;;;;;;;5010178;28;115816;-73
2021/03/29 15:45:38;;;;;;;;;14.50;10.50;;;;;;;;5003874;28;112302;-73
2021/03/29 15:48:06;;;;;;;;;11.25;10.25;;;;;;;;5006970;28;112846;-73
2021/03/29 15:50:33;;;;;;;;;11.75;10.00;;;;;;;;5008326;28;114115;-72
2021/03/29 15:52:59;;;;;;;;;13.50;11.00;;;;;;;;5005552;28;112572;-72
2021/03/29 15:55:25;;;;;;;;;14.25;12.50;;;;;;;;5005024;28;114481;-72
2021/03/29 15:57:52;;;;;;;;;13.50;12.75;;;;;;;;5004476;28;112992;-73
2021/03/29 16:00:19;;;;;;;;;12.50;11.00;;;;;;;;5011601;28;113927;-71
2021/03/29 16:02:52;;;;;;;;;11.00;9.75;;;;;;;;5004014;28;114107;-72
2021/03/29 16:05:19;;;;;;;;;11.25;10.25;;;;;;;;5005382;28;113190;-71
2021/03/29 16:07:45;;;;;;;;;11.75;10.75;;;;;;;;5008266;28;116492;-72
2021/03/29 16:10:12;;;;;;;;;12.00;11.75;;;;;;;;5005819;28;114734;-76
2021/03/29 16:12:39;;;;;;;;;11.25;10.50;;;;;;;;5013459;28;112480;-77
2021/03/29 16:15:08;;;;;;;;;10.25;10.25;;;;;;;;5008389;28;114870;-76
2021/03/29 16:17:35;;;;;;;;;11.00;9.00;;;;;;;;5009114;28;112150;-76
2021/03/29 16:20:01;;;;;;;;;10.00;10.00;;;;;;;;5008887;28;113852;-74
2021/03/29 16:22:29;;;;;;;;;11.00;10.75;;;;;;;;5006842;28;114620;-76
2021/03/29 16:24:56;;;;;;;;;9.50;8.50;;;;;;;;5005812;28;113517;-75
2021/03/29 16:27:22;;;;;;;;;13.00;11.00;;;;;;;;5005940;28;113813;-76
2021/03/29 16:29:48;;;;;;;;;13.00;11.00;;;;;;;;5004314;28;113992;-75
2021/03/29 16:32:16;;;;;;;;;12.00;10.00;;;;;;;;5006942;28;112010;-73
2021/03/29 16:34:42;;;;;;;;;12.50;12.50;;;;;;;;5008084;28;113890;-75
2021/03/29 16:37:08;;;;;;;;;13.75;13.00;;;;;;;;5007078;28;112342;-74
2021/03/29 16:39:35;;;;;;;;;13.50;12.00;;;;;;;;5006125;28;113486;-74
2021/03/29 16:42:01;;;;;;;;;10.00;10.00;;;;;;;;5009301;28;114748;-74
2021/03/29 16:44:27;;;;;;;;;13.50;12.50;;;;;;;;5008219;28;112269;-75
2021/03/29 16:46:53;;;;;;;;;10.50;10.50;;;;;;;;5012788;28;113561;-74
2021/03/29 16:49:19;;;;;;;;;11.00;10.50;;;;;;;;5015452;28;114242;-76
2021/03/29 16:51:45;;;;;;;;;13.25;13.25;;;;;;;;5016133;28;111956;-72
2021/03/29 16:54:11;;;;;;;;;12.00;10.75;;;;;;;;5008185;28;113434;-73
2021/03/29 16:56:42;;;;;;;;;12.25;11.75;;;;;;;;5002367;28;114045;-74
2021/03/29 16:59:08;;;;;;;;;11.25;11.25;;;;;;;;5002641;28;113652;-72
2021/03/29 17:01:34;;;;;;;;;10.25;10.25;;;;;;;;4995707;28;114237;-72
2021/03/29 17:04:00;;;;;;;;;12.00;12.00;;;;;;;;5001942;28;111953;-73
2021/03/29 17:06:26;;;;;;;;;13.00;12.00;;;;;;;;5002647;28;113282;-73
2021/03/29 17:08:52;;;;;;;;;11.00;11.00;;;;;;;;4996563;28;113042;-80
2021/03/29 17:11:18;;;;;;;;;14.25;11.75;;;;;;;;4996667;28;114328;-72
2021/03/29 17:13:45;;;;;;;;;11.75;11.75;;;;;;;;5003565;28;113358;-76
2021/03/29 17:16:11;;;;;;;;;18.75;17.50;;;;;;;;5005025;28;114662;-74
2021/03/29 17:18:37;;;;;;;;;13.25;13.25;;;;;;;;5003185;28;113494;-73
2021/03/29 17:21:04;;;;;;;;;10.50;10.50;;;;;;;;5001366;28;113545;-73
2021/03/29 17:23:31;;;;;;;;;10.25;10.25;;;;;;;;4997993;28;112002;-79
2021/03/29 17:25:58;;;;;;;;;13.75;12.25;;;;;;;;4999096;28;113949;-76
2021/03/29 17:28:23;;;;;;;;;13.00;12.00;;;;;;;;4998176;28;114033;-79
2021/03/29 17:30:50;;;;;;;;;13.00;11.25;;;;;;;;5000346;28;111862;-73
2021/03/29 17:33:16;;;;;;;;;15.00;14.00;;;;;;;;5000664;28;113699;-71
2021/03/29 17:35:42;;;;;;;;;13.00;12.00;;;;;;;;5000693;28;114293;-72
2021/03/29 17:38:09;;;;;;;;;12.50;11.75;;;;;;;;5004354;28;111830;-71
2021/03/29 17:40:35;;;;;;;;;12.00;12.00;;;;;;;;5000598;28;114740;-73
2021/03/29 17:43:01;;;;;;;;;12.75;12.75;;;;;;;;5000601;28;111924;-76
2021/03/29 17:45:30;;;;;;;;;15.00;14.75;;;;;;;;4999734;28;114008;-72
2021/03/29 17:47:57;;;;;;;;;14.50;13.75;;;;;;;;4990123;28;114647;-71
2021/03/29 17:50:25;;;;;;;;;19.00;17.00;;;;;;;;4996258;28;113218;-72
2021/03/29 17:52:52;;;;;;;;;20.50;19.25;;;;;;;;4996111;28;113974;-72
2021/03/29 17:55:18;;;;;;;;;18.25;16.75;;;;;;;;4993335;28;114157;-72
2021/03/29 17:57:44;;;;;;;;;18.50;17.25;;;;;;;;4996745;28;112403;-72
2021/03/29 18:00:12;;;;;;;;;16.25;16.25;;;;;;;;5003321;28;112620;-73
2021/03/29 18:02:37;;;;;;;;;20.25;17.50;;;;;;;;4997389;28;112229;-72
2021/03/29 18:05:05;;;;;;;;;18.75;16.50;;;;;;;;4999705;28;113439;-74
2021/03/29 18:07:31;;;;;;;;;16.00;16.00;;;;;;;;4991486;28;113986;-72
2021/03/29 18:09:57;;;;;;;;;13.25;11.00;;;;;;;;4996753;28;112071;-72
2021/03/29 18:12:24;;;;;;;;;13.75;13.00;;;;;;;;4998315;28;113447;-72
2021/03/29 18:14:50;;;;;;;;;14.00;14.00;;;;;;;;4994195;28;114085;-72
2021/03/29 18:17:16;;;;;;;;;15.50;15.50;;;;;;;;4998152;28;112247;-72
2021/03/29 18:19:42;;;;;;;;;13.00;12.50;;;;;;;;4988811;28;113583;-72
2021/03/29 18:22:09;;;;;;;;;16.75;16.75;;;;;;;;4998999;28;114441;-71
2021/03/29 18:24:35;;;;;;;;;12.50;12.50;;;;;;;;4995269;28;114009;-69
2021/03/29 18:27:01;;;;;;;;;13.00;13.00;;;;;;;;4996030;28;113218;-66
2021/03/29 18:29:27;;;;;;;;;16.00;14.00;;;;;;;;4997389;28;112104;-69
2021/03/29 18:31:53;;;;;;;;;14.50;14.50;;;;;;;;4995977;28;113641;-68
2021/03/29 18:34:19;;;;;;;;;16.75;14.50;;;;;;;;4997800;28;114288;-69
2021/03/29 18:36:45;;;;;;;;;16.25;14.00;;;;;;;;4989002;28;112141;-68
2021/03/29 18:39:12;;;;;;;;;18.25;15.25;;;;;;;;4999505;28;113397;-67
2021/03/29 18:41:39;;;;;;;;;9.75;9.75;;;;;;;;4993156;28;113023;-67
2021/03/29 18:44:05;;;;;;;;;12.50;12.50;;;;;;;;5006051;28;112054;-67
2021/03/29 18:46:31;;;;;;;;;13.50;13.50;;;;;;;;4995815;28;114111;-67
2021/03/29 18:48:57;;;;;;;;;16.00;14.00;;;;;;;;4996972;28;112119;-66
2021/03/29 18:51:23;;;;;;;;;13.00;13.00;;;;;;;;4995361;28;114168;-67
2021/03/29 18:53:50;;;;;;;;;17.00;15.75;;;;;;;;4997243;28;114539;-68
2021/03/29 18:56:37;;;;;;;;;16.25;14.00;;;;;;;;4992936;28;112739;-68
2021/03/29 18:59:03;;;;;;;;;13.00;12.75;;;;;;;;5002673;28;113992;-69
2021/03/29 19:01:29;;;;;;;;;13.00;12.00;;;;;;;;5002243;28;114281;-71
2021/03/29 19:03:55;;;;;;;;;14.50;14.50;;;;;;;;4994664;28;113098;-70
2021/03/29 19:06:27;;;;;;;;;14.00;14.00;;;;;;;;5000277;28;113463;-70
2021/03/29 19:08:54;;;;;;;;;13.00;13.00;;;;;;;;4990519;28;112379;-70
2021/03/29 19:11:20;;;;;;;;;9.00;9.00;;;;;;;;5000199;28;113448;-69
2021/03/29 19:13:46;;;;;;;;;13.25;13.25;;;;;;;;4985962;28;114250;-70
2021/03/29 19:16:12;;;;;;;;;17.50;14.00;;;;;;;;5000962;28;112278;-73
2021/03/29 19:18:40;;;;;;;;;17.00;14.00;;;;;;;;4996303;28;112490;-74
2021/03/29 19:21:08;;;;;;;;;16.75;15.25;;;;;;;;5001109;28;113117;-75
2021/03/29 19:23:34;;;;;;;;;16.25;15.25;;;;;;;;4999619;28;113134;-72
2021/03/29 19:26:00;;;;;;;;;15.00;14.00;;;;;;;;5002497;28;113698;-73
2021/03/29 19:28:28;;;;;;;;;15.00;15.00;;;;;;;;4999561;28;112712;-72
2021/03/29 19:30:54;;;;;;;;;16.25;13.75;;;;;;;;5003057;28;113998;-74
2021/03/29 19:33:20;;;;;;;;;14.00;14.00;;;;;;;;5006276;28;114355;-76
2021/03/29 19:35:46;;;;;;;;;17.50;15.50;;;;;;;;5008781;28;112297;-73
2021/03/29 19:38:12;;;;;;;;;17.00;17.00;;;;;;;;5005494;28;113573;-74
2021/03/29 19:40:38;;;;;;;;;15.25;12.00;;;;;;;;5005125;28;114393;-74
2021/03/29 19:43:04;;;;;;;;;16.00;14.50;;;;;;;;5007390;28;112023;-72
2021/03/29 19:45:31;;;;;;;;;15.00;14.25;;;;;;;;5005732;28;113867;-75
2021/03/29 19:47:57;;;;;;;;;15.25;14.50;;;;;;;;5009654;28;115128;-80
2021/03/29 19:50:24;;;;;;;;;19.25;15.50;;;;;;;;5000384;28;113530;-73
2021/03/29 19:52:50;;;;;;;;;19.50;16.00;;;;;;;;5005176;28;114019;-71
2021/03/29 19:55:16;;;;;;;;;17.50;15.25;;;;;;;;5005872;28;112187;-71
2021/03/29 19:57:44;;;;;;;;;13.75;13.50;;;;;;;;5009701;28;114160;-71
2021/03/29 20:00:13;;;;;;;;;17.00;15.50;;;;;;;;5006090;28;114424;-71
2021/03/29 20:02:47;;;;;;;;;20.00;17.00;;;;;;;;5009030;28;112183;-72
2021/03/29 20:05:16;;;;;;;;;16.50;15.75;;;;;;;;4998133;28;115043;-72
2021/03/29 20:07:46;;;;;;;;;18.50;17.50;;;;;;;;5008716;28;114449;-71
2021/03/29 20:10:12;;;;;;;;;18.25;17.00;;;;;;;;5010941;28;112007;-72
2021/03/29 20:12:38;;;;;;;;;17.50;17.50;;;;;;;;5004298;28;114970;-73
2021/03/29 20:15:05;;;;;;;;;16.25;14.50;;;;;;;;5007508;28;112081;-71
2021/03/29 20:17:32;;;;;;;;;20.50;15.25;;;;;;;;5003576;28;113555;-73
2021/03/29 20:19:59;;;;;;;;;18.00;17.00;;;;;;;;5007618;28;116668;-71
2021/03/29 20:22:25;;;;;;;;;20.25;16.50;;;;;;;;4987850;28;113362;-71
2021/03/29 20:24:51;;;;;;;;;17.75;17.50;;;;;;;;4998442;28;114672;-71
2021/03/29 20:27:17;;;;;;;;;20.00;17.00;;;;;;;;4998274;28;114543;-72
2021/03/29 20:29:43;;;;;;;;;18.00;16.50;;;;;;;;5000005;28;111927;-70
2021/03/29 20:32:09;;;;;;;;;18.75;16.25;;;;;;;;5002503;28;113780;-72
2021/03/29 20:34:35;;;;;;;;;19.25;16.25;;;;;;;;4999187;28;112904;-70
2021/03/29 20:37:06;;;;;;;;;20.00;18.50;;;;;;;;5004762;28;113570;-73